Have a Safe July 4th! 

Flight Track Log - Related Links

Times and Time Zones

All times are in EDT time to prevent confusion due to time zone crossing. See the N588AC flight status page for this flight to view local times or setup timezone preferences in your user account.

Time Position Orientation Groundspeed Altitude Reporting Facility
EDT Latitude Longitude Course Direction KTS MPH feet Rate Location/Type
Fri 03:18:37 PM 41.5253 -81.6703 352° North 166 191 1,400  Level Cleveland Center
Fri 03:19:50 PM 41.6044 -81.6856 352° North 267 307 2,000 448 Climbing Cleveland Center
Fri 03:20:51 PM 41.6708 -81.7172 340° North 254 292 2,400 787 Climbing Cleveland Center
Fri 03:21:52 PM 41.7014 -81.7928 298° West 261 300 3,600 2,132 Climbing Cleveland Center
Fri 03:22:52 PM 41.7169 -81.8989 281° West 271 312 6,700 3,025 Climbing Cleveland Center
Fri 03:23:53 PM 41.7239 -81.9964 275° West 266 306 9,700 2,831 Climbing Cleveland Center
Fri 03:24:21 PM 41.7278 -82.0383 277° West 259 298 10,900 1,624 Climbing Cleveland Center
Fri 03:25:18 PM 41.6869 -82.1181 236° Southwest 321 369 12,000 550 Climbing Cleveland Center
Fri 03:26:21 PM 41.5872 -82.1072 175° South 370 426 12,000 537 Level Cleveland Center
Fri 03:27:21 PM 41.4933 -82.0939 174° South 353 406 13,100 1,850 Climbing Cleveland Center
Fri 03:28:21 PM 41.3978 -82.0833 175° South 348 400 15,700 2,250 Climbing Cleveland Center
Fri 03:29:21 PM 41.3144 -82.0703 173° South 348 400 17,600 1,900 Climbing Cleveland Center
Fri 03:31:21 PM 41.1283 -82.1242 192° South 330 380 21,400 1,967 Climbing Cleveland Center
Fri 03:32:21 PM 41.0442 -82.1661 201° Southwest 330 380 23,500 1,850 Climbing Cleveland Center
Fri 03:33:21 PM 40.9506 -82.1667 180° South 330 380 25,100 1,316 Climbing Cleveland Center
Fri 03:34:56 PM 40.8017 -82.0911 159° South 385 443 26,900 726 Climbing Indianapolis Center
Fri 03:35:58 PM 40.6894 -82.0511 165° South 408 470 27,000 629 Climbing Indianapolis Center
Fri 03:37:00 PM 40.5731 -82.0058 164° South 431 496 28,200 1,597 Climbing Indianapolis Center
Fri 03:38:02 PM 40.4436 -81.9547 163° South 416 479 30,300 1,839 Climbing Indianapolis Center
Fri 03:39:04 PM 40.3356 -81.9094 162° South 408 470 32,000 1,694 Climbing Indianapolis Center
Fri 03:40:06 PM 40.2289 -81.8636 162° South 394 453 33,800 1,645 Climbing Indianapolis Center
Fri 03:41:08 PM 40.1272 -81.8169 161° South 384 442 35,400 1,258 Climbing Indianapolis Center
Fri 03:42:10 PM 40.0297 -81.7728 161° South 382 440 36,400 774 Climbing Indianapolis Center
Fri 03:43:12 PM 39.9206 -81.7242 161° South 395 455 37,000 288 Climbing Indianapolis Center
Fri 03:44:15 PM 39.8094 -81.6764 162° South 414 476 37,000  Level Indianapolis Center
Fri 03:45:17 PM 39.6933 -81.6297 163° South 431 496 37,000  Level Indianapolis Center
Fri 03:46:19 PM 39.5783 -81.5739 159° South 441 507 37,000  Level Indianapolis Center
Fri 03:47:21 PM 39.4394 -81.5022 158° South 445 512 37,000  Level Indianapolis Center
Fri 03:48:23 PM 39.3228 -81.4425 158° South 448 516 37,000  Level Indianapolis Center
Fri 03:49:25 PM 39.2058 -81.3836 159° South 448 516 37,000  Level Indianapolis Center
Fri 03:50:27 PM 39.0892 -81.3253 159° South 446 513 37,000  Level Indianapolis Center
Fri 03:51:29 PM 38.9714 -81.2672 159° South 448 516 37,000  Level Indianapolis Center
Fri 03:52:31 PM 38.8547 -81.2086 159° South 443 510 37,000 -145 Level Indianapolis Center
Fri 03:53:33 PM 38.7367 -81.1497 159° South 447 514 36,700 -1,306 Descending Indianapolis Center
Fri 03:54:35 PM 38.6231 -81.0931 159° South 436 502 34,300 -2,371 Descending Indianapolis Center
Fri 03:55:37 PM 38.5164 -81.0406 159° South 412 474 31,800 -2,613 Descending Indianapolis Center
Fri 03:56:39 PM 38.3872 -80.9778 159° South 410 472 28,900 -2,371 Descending Indianapolis Center
Fri 03:57:41 PM 38.2731 -80.9222 159° South 433 498 26,900 -1,790 Descending Indianapolis Center
Fri 03:58:43 PM 38.1653 -80.8767 162° South 438 504 25,200 -1,770 Descending Washington Center
Fri 03:59:43 PM 38.0633 -80.8244 158° South 426 490 23,300 -1,916 Descending Washington Center
Fri 04:00:42 PM 37.9611 -80.7753 159° South 404 465 21,400 -2,100 Descending Washington Center
Fri 04:01:43 PM 37.8550 -80.7233 159° South 383 441 19,100 -2,083 Descending Washington Center
Fri 04:02:43 PM 37.7547 -80.6744 159° South 383 441 17,200 -2,085 Descending Washington Center
Fri 04:03:41 PM 37.6608 -80.6286 159° South 383 441 15,000 -2,067 Descending Washington Center
Fri 04:04:42 PM 37.5789 -80.5892 159° South 369 425 13,100 -1,835 Descending Washington Center
Fri 04:05:42 PM 37.4950 -80.5497 160° South 347 399 11,300 -1,250 Descending Washington Center
Fri 04:06:42 PM 37.4133 -80.5103 159° South 328 377 10,600 -1,240 Descending Washington Center
Fri 04:07:43 PM 37.3333 -80.4711 159° South 299 344 8,800 -2,164 Descending Washington Center
Fri 04:08:44 PM 37.2639 -80.4381 159° South 278 320 6,200 -2,034 Descending Washington Center
Fri 04:09:41 PM 37.2042 -80.4186 165° South 252 290 4,800 -1,424 Descending Washington Center
Fri 04:10:42 PM 37.1592 -80.3950 157° South 210 242 3,400 -843 Descending Washington Center
Fri 04:11:42 PM 37.1833 -80.3678 42° Northeast 109 125 3,100 -450 Descending Washington Center
Fri 04:12:42 PM 37.2056 -80.3875 325° Northwest 58 67 2,500 -600 Descending Washington Center

Login

Don't have an account? Register now (free) for customized features, flight alerts, and more!